BSG weather

Bata Airport
Litoral, Equatorial Guinea

Public forecast

Using degrees Celsius for public forecast. Weather courtesy of forecast.io.

Current aviation weather report (METAR) for Bata Airport

Retrieved 2020/01/28 09:00 UTC (39 minutes ago):

FGBT 280900Z 00000KT 8000 SCT010 29/27 Q1012

Aviation forecast (TAF) for Bata Airport

Retrieved 2020/01/28 06:39 UTC (3 hours ago):

TAF TAF FGBT 280500Z 2806/2906 20006KT 8000 SCT012 TEMPO 2806/2817 BKN012 FEW020CB